CGXAR CYBW-CYQF
Flight info
| Callsign | CGXAR |
|---|---|
| Flight time | 0h 28m |
| Altitude | 7000 |
| Route | CYBW DCT PEVLU DCT KERSA CYQF |
| Aircraft | PA34/L-SDFGRY/LB1D1 |
Departure
| Time | 2026-05-05 21:15 |
|---|---|
| Airport | Calgary / Springbank Airport (CYBW) |
Arrival
| Time | 2026-05-05 21:44 |
|---|---|
| Airport | Red Deer Regional Airport (CYQF) |
| Time | Latitude | Longitude | Altitude | Speed | Heading |
|---|---|---|---|---|---|
| 2026-05-05 21:03 | 51.10269 | -114.37524 | 3939 ft | 0 kts | 92° |
| 2026-05-05 21:10 | 51.10270 | -114.37517 | 3939 ft | 2 kts | 53° |
| 2026-05-05 21:11 | 51.10292 | -114.37527 | 3939 ft | 0 kts | 295° |
| 2026-05-05 21:11 | 51.10300 | -114.37563 | 3939 ft | 5 kts | 295° |
| 2026-05-05 21:11 | 51.10293 | -114.37595 | 3931 ft | 3 kts | 196° |
| 2026-05-05 21:11 | 51.10260 | -114.37602 | 3939 ft | 8 kts | 181° |
| 2026-05-05 21:12 | 51.10201 | -114.37603 | 3939 ft | 9 kts | 180° |
| 2026-05-05 21:12 | 51.10135 | -114.37602 | 3938 ft | 10 kts | 179° |
| 2026-05-05 21:12 | 51.10061 | -114.37603 | 3938 ft | 11 kts | 180° |
| 2026-05-05 21:12 | 51.09980 | -114.37603 | 3938 ft | 12 kts | 179° |
| 2026-05-05 21:13 | 51.09893 | -114.37602 | 3938 ft | 13 kts | 184° |
| 2026-05-05 21:13 | 51.09854 | -114.37650 | 3938 ft | 5 kts | 269° |
| 2026-05-05 21:13 | 51.09854 | -114.37711 | 3938 ft | 2 kts | 270° |
| 2026-05-05 21:14 | 51.09854 | -114.37824 | 3937 ft | 14 kts | 272° |
| 2026-05-05 21:14 | 51.09870 | -114.37875 | 3937 ft | 12 kts | 344° |
| 2026-05-05 21:14 | 51.10143 | -114.37863 | 3938 ft | 65 kts | 356° |
| 2026-05-05 21:15 | 51.10654 | -114.37812 | 4122 ft | 76 kts | 4° |
| 2026-05-05 21:15 | 51.11213 | -114.37801 | 4404 ft | 86 kts | 1° |
| 2026-05-05 21:15 | 51.11847 | -114.37852 | 4790 ft | 86 kts | 357° |
| 2026-05-05 21:15 | 51.12422 | -114.37901 | 5234 ft | 81 kts | 358° |
| 2026-05-05 21:16 | 51.12988 | -114.37938 | 5594 ft | 82 kts | 359° |
| 2026-05-05 21:16 | 51.13551 | -114.37875 | 5954 ft | 86 kts | 21° |
| 2026-05-05 21:16 | 51.14161 | -114.37439 | 6146 ft | 105 kts | 19° |
| 2026-05-05 21:16 | 51.14854 | -114.36991 | 6578 ft | 107 kts | 20° |
| 2026-05-05 21:17 | 51.15536 | -114.36555 | 6945 ft | 106 kts | 19° |
| 2026-05-05 21:17 | 51.16269 | -114.36092 | 7027 ft | 119 kts | 19° |
| 2026-05-05 21:17 | 51.17081 | -114.35580 | 7029 ft | 133 kts | 19° |
| 2026-05-05 21:17 | 51.17970 | -114.35016 | 7031 ft | 141 kts | 19° |
| 2026-05-05 21:18 | 51.18902 | -114.34425 | 7034 ft | 147 kts | 19° |
| 2026-05-05 21:18 | 51.19878 | -114.33807 | 7040 ft | 154 kts | 19° |
| 2026-05-05 21:18 | 51.20896 | -114.33163 | 7036 ft | 162 kts | 19° |
| 2026-05-05 21:18 | 51.21963 | -114.32493 | 7038 ft | 168 kts | 20° |
| 2026-05-05 21:19 | 51.23078 | -114.31783 | 7039 ft | 173 kts | 19° |
| 2026-05-05 21:19 | 51.24192 | -114.31077 | 7040 ft | 175 kts | 19° |
| 2026-05-05 21:19 | 51.25333 | -114.30354 | 7036 ft | 176 kts | 20° |
| 2026-05-05 21:19 | 51.26477 | -114.29626 | 7035 ft | 177 kts | 20° |
| 2026-05-05 21:20 | 51.27623 | -114.28900 | 7034 ft | 178 kts | 20° |
| 2026-05-05 21:20 | 51.28760 | -114.28177 | 7032 ft | 176 kts | 20° |
| 2026-05-05 21:20 | 51.29902 | -114.27452 | 7034 ft | 177 kts | 20° |
| 2026-05-05 21:20 | 51.31042 | -114.26727 | 7038 ft | 175 kts | 20° |
| 2026-05-05 21:21 | 51.32154 | -114.26020 | 7036 ft | 172 kts | 19° |
| 2026-05-05 21:21 | 51.33255 | -114.25320 | 7057 ft | 169 kts | 19° |
| 2026-05-05 21:21 | 51.34342 | -114.24628 | 7055 ft | 167 kts | 19° |
| 2026-05-05 21:21 | 51.35412 | -114.23947 | 7055 ft | 166 kts | 20° |
| 2026-05-05 21:22 | 51.36491 | -114.23258 | 7054 ft | 166 kts | 19° |
| 2026-05-05 21:22 | 51.37557 | -114.22578 | 7058 ft | 165 kts | 19° |
| 2026-05-05 21:22 | 51.38626 | -114.21896 | 7059 ft | 166 kts | 20° |
| 2026-05-05 21:22 | 51.39700 | -114.21211 | 7058 ft | 165 kts | 19° |
| 2026-05-05 21:23 | 51.40753 | -114.20538 | 7058 ft | 166 kts | 20° |
| 2026-05-05 21:23 | 51.41476 | -114.20075 | 7062 ft | 166 kts | 19° |
| 2026-05-05 21:23 | 51.42905 | -114.19162 | 7058 ft | 166 kts | 19° |
| 2026-05-05 21:23 | 51.43982 | -114.18474 | 7064 ft | 167 kts | 20° |
| 2026-05-05 21:24 | 51.44703 | -114.18008 | 7056 ft | 168 kts | 19° |
| 2026-05-05 21:24 | 51.46139 | -114.17089 | 7053 ft | 167 kts | 20° |
| 2026-05-05 21:24 | 51.47218 | -114.16398 | 7056 ft | 167 kts | 20° |
| 2026-05-05 21:24 | 51.47938 | -114.15936 | 7057 ft | 168 kts | 20° |
| 2026-05-05 21:25 | 51.49026 | -114.15238 | 7054 ft | 167 kts | 20° |
| 2026-05-05 21:25 | 51.50111 | -114.14541 | 7058 ft | 169 kts | 20° |
| 2026-05-05 21:25 | 51.51227 | -114.13975 | 7069 ft | 168 kts | 12° |
| 2026-05-05 21:25 | 51.52367 | -114.13558 | 7069 ft | 168 kts | 12° |
| 2026-05-05 21:26 | 51.53501 | -114.13036 | 7063 ft | 170 kts | 17° |
| 2026-05-05 21:26 | 51.54606 | -114.12428 | 7061 ft | 169 kts | 17° |
| 2026-05-05 21:26 | 51.55728 | -114.11832 | 7064 ft | 169 kts | 16° |
| 2026-05-05 21:26 | 51.56853 | -114.11248 | 7058 ft | 169 kts | 16° |
| 2026-05-05 21:27 | 51.57954 | -114.10675 | 7063 ft | 167 kts | 16° |
| 2026-05-05 21:27 | 51.59062 | -114.10098 | 7062 ft | 166 kts | 17° |
| 2026-05-05 21:27 | 51.60162 | -114.09525 | 7060 ft | 166 kts | 17° |
| 2026-05-05 21:27 | 51.61266 | -114.08951 | 7061 ft | 166 kts | 17° |
| 2026-05-05 21:28 | 51.62347 | -114.08391 | 7062 ft | 166 kts | 17° |
| 2026-05-05 21:28 | 51.63443 | -114.07757 | 7074 ft | 167 kts | 21° |
| 2026-05-05 21:28 | 51.64523 | -114.07084 | 7085 ft | 167 kts | 20° |
| 2026-05-05 21:28 | 51.65590 | -114.06335 | 7073 ft | 168 kts | 22° |
| 2026-05-05 21:29 | 51.66663 | -114.05582 | 7076 ft | 167 kts | 21° |
| 2026-05-05 21:29 | 51.67727 | -114.04834 | 7075 ft | 169 kts | 21° |
| 2026-05-05 21:29 | 51.68803 | -114.04088 | 7074 ft | 167 kts | 21° |
| 2026-05-05 21:29 | 51.69879 | -114.03332 | 7070 ft | 169 kts | 21° |
| 2026-05-05 21:30 | 51.70966 | -114.02580 | 7074 ft | 170 kts | 21° |
| 2026-05-05 21:30 | 51.72055 | -114.01826 | 7073 ft | 170 kts | 21° |
| 2026-05-05 21:30 | 51.73137 | -114.01070 | 7077 ft | 172 kts | 21° |
| 2026-05-05 21:30 | 51.74277 | -114.00450 | 7077 ft | 172 kts | 12° |
| 2026-05-05 21:31 | 51.75426 | -114.00009 | 7077 ft | 171 kts | 13° |
| 2026-05-05 21:31 | 51.76586 | -113.99510 | 7062 ft | 171 kts | 14° |
| 2026-05-05 21:31 | 51.77732 | -113.98985 | 7065 ft | 170 kts | 15° |
| 2026-05-05 21:31 | 51.78871 | -113.98460 | 7063 ft | 169 kts | 14° |
| 2026-05-05 21:32 | 51.79982 | -113.97948 | 7081 ft | 167 kts | 14° |
| 2026-05-05 21:32 | 51.81111 | -113.97428 | 7075 ft | 169 kts | 14° |
| 2026-05-05 21:32 | 51.82250 | -113.96905 | 7081 ft | 170 kts | 14° |
| 2026-05-05 21:32 | 51.83395 | -113.96379 | 7076 ft | 170 kts | 14° |
| 2026-05-05 21:33 | 51.84512 | -113.95863 | 7076 ft | 162 kts | 14° |
| 2026-05-05 21:33 | 51.85567 | -113.95378 | 7072 ft | 156 kts | 14° |
| 2026-05-05 21:33 | 51.86609 | -113.94897 | 7072 ft | 156 kts | 14° |
| 2026-05-05 21:33 | 51.87655 | -113.94413 | 7008 ft | 149 kts | 14° |
| 2026-05-05 21:34 | 51.88547 | -113.93998 | 6837 ft | 118 kts | 13° |
| 2026-05-05 21:34 | 51.89262 | -113.93672 | 6681 ft | 106 kts | 13° |
| 2026-05-05 21:34 | 51.90049 | -113.93317 | 6541 ft | 129 kts | 14° |
| 2026-05-05 21:34 | 51.90964 | -113.92892 | 6389 ft | 140 kts | 14° |
| 2026-05-05 21:35 | 51.91902 | -113.92457 | 6236 ft | 143 kts | 15° |
| 2026-05-05 21:35 | 51.92857 | -113.92013 | 6080 ft | 141 kts | 14° |
| 2026-05-05 21:35 | 51.93790 | -113.91581 | 5922 ft | 136 kts | 15° |
| 2026-05-05 21:35 | 51.94694 | -113.91163 | 5769 ft | 133 kts | 14° |
| 2026-05-05 21:36 | 51.95569 | -113.90757 | 5614 ft | 131 kts | 14° |
| 2026-05-05 21:36 | 51.96437 | -113.90355 | 5457 ft | 128 kts | 14° |
| 2026-05-05 21:36 | 51.97290 | -113.89960 | 5302 ft | 126 kts | 14° |
| 2026-05-05 21:36 | 51.98129 | -113.89571 | 5182 ft | 121 kts | 14° |
| 2026-05-05 21:37 | 51.98893 | -113.89248 | 5169 ft | 110 kts | 7° |
| 2026-05-05 21:37 | 51.99645 | -113.89244 | 5163 ft | 107 kts | 0° |
| 2026-05-05 21:37 | 52.00373 | -113.89241 | 5169 ft | 103 kts | 359° |
| 2026-05-05 21:37 | 52.01096 | -113.89240 | 5173 ft | 104 kts | 360° |
| 2026-05-05 21:38 | 52.01820 | -113.89240 | 5177 ft | 106 kts | 359° |
| 2026-05-05 21:38 | 52.02572 | -113.89240 | 5177 ft | 108 kts | 359° |
| 2026-05-05 21:38 | 52.03321 | -113.89241 | 5132 ft | 109 kts | 359° |
| 2026-05-05 21:38 | 52.04103 | -113.89239 | 5126 ft | 115 kts | 360° |
| 2026-05-05 21:39 | 52.04899 | -113.89242 | 5124 ft | 116 kts | 359° |
| 2026-05-05 21:39 | 52.05717 | -113.89242 | 5120 ft | 117 kts | 359° |
| 2026-05-05 21:39 | 52.06532 | -113.89243 | 5121 ft | 116 kts | 359° |
| 2026-05-05 21:39 | 52.07344 | -113.89244 | 5080 ft | 121 kts | 359° |
| 2026-05-05 21:40 | 52.08206 | -113.89243 | 4922 ft | 114 kts | 0° |
| 2026-05-05 21:40 | 52.08894 | -113.89246 | 4765 ft | 86 kts | 360° |
| 2026-05-05 21:40 | 52.09457 | -113.89249 | 4662 ft | 80 kts | 0° |
| 2026-05-05 21:40 | 52.10056 | -113.89249 | 4564 ft | 91 kts | 0° |
| 2026-05-05 21:41 | 52.10695 | -113.89250 | 4435 ft | 92 kts | 0° |
| 2026-05-05 21:41 | 52.11325 | -113.89252 | 4312 ft | 89 kts | 0° |
| 2026-05-05 21:41 | 52.11925 | -113.89254 | 4182 ft | 86 kts | 0° |
| 2026-05-05 21:41 | 52.12504 | -113.89256 | 4054 ft | 81 kts | 359° |
| 2026-05-05 21:42 | 52.13060 | -113.89259 | 3933 ft | 79 kts | 359° |
| 2026-05-05 21:42 | 52.13637 | -113.89258 | 3794 ft | 85 kts | 358° |
| 2026-05-05 21:42 | 52.14251 | -113.89257 | 3663 ft | 93 kts | 0° |
| 2026-05-05 21:42 | 52.14906 | -113.89258 | 3513 ft | 95 kts | 1° |
| 2026-05-05 21:43 | 52.15581 | -113.89258 | 3367 ft | 96 kts | 0° |
| 2026-05-05 21:43 | 52.16210 | -113.89263 | 3248 ft | 88 kts | 0° |
| 2026-05-05 21:43 | 52.16811 | -113.89265 | 3134 ft | 84 kts | 360° |
| 2026-05-05 21:43 | 52.17373 | -113.89260 | 3027 ft | 78 kts | 0° |
| 2026-05-05 21:44 | 52.17875 | -113.89258 | 2959 ft | 60 kts | 358° |
| 2026-05-05 21:44 | 52.18163 | -113.89261 | 2961 ft | 32 kts | 359° |
| 2026-05-05 21:44 | 52.18330 | -113.89262 | 2959 ft | 15 kts | 359° |
| 2026-05-05 21:44 | 52.18411 | -113.89245 | 2961 ft | 8 kts | 49° |
| 2026-05-05 21:45 | 52.18421 | -113.89172 | 2965 ft | 6 kts | 86° |
| 2026-05-05 21:45 | 52.18422 | -113.89139 | 2965 ft | 0 kts | 88° |
| 2026-05-05 21:45 | 52.18423 | -113.89119 | 2965 ft | 7 kts | 86° |
| 2026-05-05 21:45 | 52.18422 | -113.89001 | 2966 ft | 11 kts | 98° |
| 2026-05-05 21:46 | 52.18384 | -113.88965 | 2965 ft | 7 kts | 182° |
| 2026-05-05 21:46 | 52.18326 | -113.88966 | 2964 ft | 9 kts | 181° |
| 2026-05-05 21:46 | 52.18254 | -113.88966 | 2964 ft | 11 kts | 182° |
| 2026-05-05 21:46 | 52.18169 | -113.88968 | 2963 ft | 13 kts | 179° |
| 2026-05-05 21:47 | 52.18092 | -113.88963 | 2957 ft | 7 kts | 151° |
| 2026-05-05 21:47 | 52.18089 | -113.88901 | 2962 ft | 6 kts | 58° |
| 2026-05-05 21:47 | 52.18106 | -113.88870 | 2957 ft | 3 kts | 45° |